sensor_id;sensor_type;location;lat;lon;timestamp;temperature;humidity
23452;DHT22;11898;51.130;6.780;2022-08-05T00:01:57;23.70;99.90
23452;DHT22;11898;51.130;6.780;2022-08-05T00:04:28;23.70;99.90
23452;DHT22;11898;51.130;6.780;2022-08-05T00:06:57;23.60;99.90
23452;DHT22;11898;51.130;6.780;2022-08-05T00:09:26;23.60;99.90
23452;DHT22;11898;51.130;6.780;2022-08-05T00:11:56;23.70;99.90
23452;DHT22;11898;51.130;6.780;2022-08-05T00:14:26;23.70;99.90
23452;DHT22;11898;51.130;6.780;2022-08-05T00:16:57;23.60;99.90
23452;DHT22;11898;51.130;6.780;2022-08-05T00:19:27;23.50;99.90
23452;DHT22;11898;51.130;6.780;2022-08-05T00:21:58;23.50;99.90
23452;DHT22;11898;51.130;6.780;2022-08-05T00:26:57;23.50;99.90
23452;DHT22;11898;51.130;6.780;2022-08-05T00:31:55;23.20;99.90
23452;DHT22;11898;51.130;6.780;2022-08-05T00:34:26;23.20;99.90
23452;DHT22;11898;51.130;6.780;2022-08-05T00:36:56;23.20;99.90
23452;DHT22;11898;51.130;6.780;2022-08-05T00:39:26;23.10;99.90
23452;DHT22;11898;51.130;6.780;2022-08-05T00:41:57;23.00;99.90
23452;DHT22;11898;51.130;6.780;2022-08-05T00:44:25;23.10;99.90
23452;DHT22;11898;51.130;6.780;2022-08-05T00:46:55;23.00;99.90
23452;DHT22;11898;51.130;6.780;2022-08-05T00:49:26;22.90;99.90
23452;DHT22;11898;51.130;6.780;2022-08-05T00:51:56;22.90;99.90
23452;DHT22;11898;51.130;6.780;2022-08-05T00:54:25;22.80;99.90
23452;DHT22;11898;51.130;6.780;2022-08-05T00:56:55;22.80;99.90
23452;DHT22;11898;51.130;6.780;2022-08-05T00:59:23;22.70;99.90
23452;DHT22;11898;51.130;6.780;2022-08-05T01:01:54;22.70;99.90
23452;DHT22;11898;51.130;6.780;2022-08-05T01:04:22;22.60;99.90
23452;DHT22;11898;51.130;6.780;2022-08-05T01:06:53;22.60;99.90
23452;DHT22;11898;51.130;6.780;2022-08-05T01:09:21;22.50;99.90
23452;DHT22;11898;51.130;6.780;2022-08-05T01:11:54;22.50;99.90
23452;DHT22;11898;51.130;6.780;2022-08-05T01:17:03;22.40;99.90
23452;DHT22;11898;51.130;6.780;2022-08-05T01:19:51;22.30;99.90
23452;DHT22;11898;51.130;6.780;2022-08-05T01:22:44;22.30;99.90
23452;DHT22;11898;51.130;6.780;2022-08-05T01:25:35;22.20;99.90
23452;DHT22;11898;51.130;6.780;2022-08-05T01:37:05;21.90;99.90
23452;DHT22;11898;51.130;6.780;2022-08-05T01:39:26;21.80;99.90
23452;DHT22;11898;51.130;6.780;2022-08-05T01:41:58;21.80;99.90
23452;DHT22;11898;51.130;6.780;2022-08-05T01:44:30;21.80;99.90
23452;DHT22;11898;51.130;6.780;2022-08-05T01:47:01;21.80;99.90
23452;DHT22;11898;51.130;6.780;2022-08-05T01:49:32;21.90;99.90
23452;DHT22;11898;51.130;6.780;2022-08-05T01:52:04;21.80;99.90
23452;DHT22;11898;51.130;6.780;2022-08-05T01:54:47;21.90;99.90
23452;DHT22;11898;51.130;6.780;2022-08-05T01:57:25;21.90;99.90
23452;DHT22;11898;51.130;6.780;2022-08-05T01:59:58;21.90;99.90
23452;DHT22;11898;51.130;6.780;2022-08-05T02:02:30;21.90;99.90
23452;DHT22;11898;51.130;6.780;2022-08-05T02:05:03;21.80;99.90
23452;DHT22;11898;51.130;6.780;2022-08-05T02:07:35;21.80;99.90
23452;DHT22;11898;51.130;6.780;2022-08-05T02:10:05;21.90;99.90
23452;DHT22;11898;51.130;6.780;2022-08-05T02:15:54;21.90;99.90
23452;DHT22;11898;51.130;6.780;2022-08-05T02:18:50;21.90;99.90
23452;DHT22;11898;51.130;6.780;2022-08-05T02:21:24;21.80;99.90
23452;DHT22;11898;51.130;6.780;2022-08-05T02:23:54;21.60;99.90
23452;DHT22;11898;51.130;6.780;2022-08-05T02:26:26;21.70;99.90
23452;DHT22;11898;51.130;6.780;2022-08-05T02:28:55;21.60;99.90
23452;DHT22;11898;51.130;6.780;2022-08-05T02:31:30;21.60;99.90
23452;DHT22;11898;51.130;6.780;2022-08-05T02:34:07;21.50;99.90
23452;DHT22;11898;51.130;6.780;2022-08-05T02:36:48;21.50;99.90
23452;DHT22;11898;51.130;6.780;2022-08-05T02:39:19;21.50;99.90
23452;DHT22;11898;51.130;6.780;2022-08-05T02:41:48;21.50;99.90
23452;DHT22;11898;51.130;6.780;2022-08-05T02:44:20;21.50;99.90
23452;DHT22;11898;51.130;6.780;2022-08-05T02:46:51;21.50;99.90
23452;DHT22;11898;51.130;6.780;2022-08-05T02:49:42;21.40;99.90
23452;DHT22;11898;51.130;6.780;2022-08-05T02:52:14;21.40;99.90
23452;DHT22;11898;51.130;6.780;2022-08-05T02:54:45;21.50;99.90
23452;DHT22;11898;51.130;6.780;2022-08-05T02:57:18;21.50;99.90
23452;DHT22;11898;51.130;6.780;2022-08-05T02:59:50;21.50;99.90
23452;DHT22;11898;51.130;6.780;2022-08-05T03:02:23;21.50;99.90
23452;DHT22;11898;51.130;6.780;2022-08-05T03:04:56;21.40;99.90
23452;DHT22;11898;51.130;6.780;2022-08-05T03:07:26;21.50;99.90
23452;DHT22;11898;51.130;6.780;2022-08-05T03:09:57;21.50;99.90
23452;DHT22;11898;51.130;6.780;2022-08-05T03:12:33;21.40;99.90
23452;DHT22;11898;51.130;6.780;2022-08-05T03:15:07;21.50;99.90
23452;DHT22;11898;51.130;6.780;2022-08-05T03:17:37;21.40;99.90
23452;DHT22;11898;51.130;6.780;2022-08-05T03:20:08;21.30;99.90
23452;DHT22;11898;51.130;6.780;2022-08-05T03:22:39;21.60;99.90
23452;DHT22;11898;51.130;6.780;2022-08-05T03:25:10;21.50;99.90
23452;DHT22;11898;51.130;6.780;2022-08-05T03:27:41;21.50;99.90
23452;DHT22;11898;51.130;6.780;2022-08-05T03:30:12;21.50;99.90
23452;DHT22;11898;51.130;6.780;2022-08-05T03:32:42;21.50;99.90
23452;DHT22;11898;51.130;6.780;2022-08-05T03:35:19;21.50;99.90
23452;DHT22;11898;51.130;6.780;2022-08-05T03:37:48;21.50;99.90
23452;DHT22;11898;51.130;6.780;2022-08-05T03:40:18;21.50;99.90
23452;DHT22;11898;51.130;6.780;2022-08-05T03:42:49;21.50;99.90
23452;DHT22;11898;51.130;6.780;2022-08-05T03:45:19;21.50;99.90
23452;DHT22;11898;51.130;6.780;2022-08-05T03:47:50;21.50;99.90
23452;DHT22;11898;51.130;6.780;2022-08-05T03:50:20;21.50;99.90
23452;DHT22;11898;51.130;6.780;2022-08-05T03:53:06;21.60;99.90
23452;DHT22;11898;51.130;6.780;2022-08-05T03:55:58;21.60;99.90
23452;DHT22;11898;51.130;6.780;2022-08-05T03:58:20;21.70;99.90
23452;DHT22;11898;51.130;6.780;2022-08-05T04:00:52;21.70;99.90
23452;DHT22;11898;51.130;6.780;2022-08-05T04:03:22;21.70;99.90
23452;DHT22;11898;51.130;6.780;2022-08-05T04:05:54;21.70;99.90
23452;DHT22;11898;51.130;6.780;2022-08-05T04:08:24;21.70;99.90
23452;DHT22;11898;51.130;6.780;2022-08-05T04:10:59;21.70;99.90
23452;DHT22;11898;51.130;6.780;2022-08-05T04:13:30;21.70;99.90
23452;DHT22;11898;51.130;6.780;2022-08-05T04:16:01;21.70;99.90
23452;DHT22;11898;51.130;6.780;2022-08-05T04:18:31;21.70;99.90
23452;DHT22;11898;51.130;6.780;2022-08-05T04:21:02;21.70;99.90
23452;DHT22;11898;51.130;6.780;2022-08-05T04:23:33;21.70;99.90
23452;DHT22;11898;51.130;6.780;2022-08-05T04:28:33;21.70;99.90
23452;DHT22;11898;51.130;6.780;2022-08-05T04:31:03;21.70;99.90
23452;DHT22;11898;51.130;6.780;2022-08-05T04:36:04;21.60;99.90
23452;DHT22;11898;51.130;6.780;2022-08-05T04:38:35;21.50;99.90
23452;DHT22;11898;51.130;6.780;2022-08-05T04:41:06;21.50;99.90
23452;DHT22;11898;51.130;6.780;2022-08-05T04:43:39;21.50;99.90
23452;DHT22;11898;51.130;6.780;2022-08-05T04:46:10;21.50;99.90
23452;DHT22;11898;51.130;6.780;2022-08-05T04:48:39;21.40;99.90
23452;DHT22;11898;51.130;6.780;2022-08-05T04:51:08;21.40;99.90
23452;DHT22;11898;51.130;6.780;2022-08-05T04:53:40;21.40;99.90
23452;DHT22;11898;51.130;6.780;2022-08-05T04:56:08;21.30;99.90
23452;DHT22;11898;51.130;6.780;2022-08-05T04:58:39;21.40;99.90
23452;DHT22;11898;51.130;6.780;2022-08-05T05:01:08;21.30;99.90
23452;DHT22;11898;51.130;6.780;2022-08-05T05:03:36;21.40;99.90
23452;DHT22;11898;51.130;6.780;2022-08-05T05:06:09;21.40;99.90
23452;DHT22;11898;51.130;6.780;2022-08-05T05:08:39;21.30;99.90
23452;DHT22;11898;51.130;6.780;2022-08-05T05:11:09;21.40;99.90
23452;DHT22;11898;51.130;6.780;2022-08-05T05:13:40;21.40;99.90
23452;DHT22;11898;51.130;6.780;2022-08-05T05:16:10;21.40;99.90
23452;DHT22;11898;51.130;6.780;2022-08-05T05:18:40;21.40;99.90
23452;DHT22;11898;51.130;6.780;2022-08-05T05:21:12;21.40;99.90
23452;DHT22;11898;51.130;6.780;2022-08-05T05:23:59;21.50;99.90
23452;DHT22;11898;51.130;6.780;2022-08-05T05:26:30;21.40;99.90
23452;DHT22;11898;51.130;6.780;2022-08-05T05:28:59;21.40;99.90
23452;DHT22;11898;51.130;6.780;2022-08-05T05:31:30;22.00;99.90
23452;DHT22;11898;51.130;6.780;2022-08-05T05:34:00;21.10;99.90
23452;DHT22;11898;51.130;6.780;2022-08-05T05:36:30;21.60;99.90
23452;DHT22;11898;51.130;6.780;2022-08-05T05:39:03;21.60;99.90
23452;DHT22;11898;51.130;6.780;2022-08-05T05:41:33;21.60;99.90
23452;DHT22;11898;51.130;6.780;2022-08-05T05:44:04;21.60;99.90
23452;DHT22;11898;51.130;6.780;2022-08-05T05:46:34;21.60;99.90
23452;DHT22;11898;51.130;6.780;2022-08-05T05:49:05;21.70;99.90
23452;DHT22;11898;51.130;6.780;2022-08-05T05:51:35;21.70;99.90
23452;DHT22;11898;51.130;6.780;2022-08-05T05:54:05;21.60;99.90
23452;DHT22;11898;51.130;6.780;2022-08-05T05:56:35;21.60;99.90
23452;DHT22;11898;51.130;6.780;2022-08-05T05:59:05;21.60;99.90
23452;DHT22;11898;51.130;6.780;2022-08-05T06:01:36;21.60;99.90
23452;DHT22;11898;51.130;6.780;2022-08-05T06:04:08;21.50;99.90
23452;DHT22;11898;51.130;6.780;2022-08-05T06:06:40;21.60;99.90
23452;DHT22;11898;51.130;6.780;2022-08-05T06:09:10;21.80;99.90
23452;DHT22;11898;51.130;6.780;2022-08-05T06:11:40;21.60;99.90
23452;DHT22;11898;51.130;6.780;2022-08-05T06:14:11;21.60;99.90
23452;DHT22;11898;51.130;6.780;2022-08-05T06:16:39;21.60;99.90
23452;DHT22;11898;51.130;6.780;2022-08-05T06:19:09;21.50;99.90
23452;DHT22;11898;51.130;6.780;2022-08-05T06:21:40;21.50;99.90
23452;DHT22;11898;51.130;6.780;2022-08-05T06:24:10;21.50;99.90
23452;DHT22;11898;51.130;6.780;2022-08-05T06:26:40;21.40;99.90
23452;DHT22;11898;51.130;6.780;2022-08-05T06:29:11;21.50;99.90
23452;DHT22;11898;51.130;6.780;2022-08-05T06:31:41;21.40;99.90
23452;DHT22;11898;51.130;6.780;2022-08-05T06:34:11;21.20;99.90
23452;DHT22;11898;51.130;6.780;2022-08-05T06:36:42;21.40;99.90
23452;DHT22;11898;51.130;6.780;2022-08-05T06:39:12;21.40;99.90
23452;DHT22;11898;51.130;6.780;2022-08-05T06:41:41;21.40;99.90
23452;DHT22;11898;51.130;6.780;2022-08-05T06:44:10;21.40;99.90
23452;DHT22;11898;51.130;6.780;2022-08-05T06:46:38;21.30;99.90
23452;DHT22;11898;51.130;6.780;2022-08-05T06:49:09;21.30;99.90
23452;DHT22;11898;51.130;6.780;2022-08-05T06:51:38;21.30;99.90
23452;DHT22;11898;51.130;6.780;2022-08-05T06:54:07;21.30;99.90
23452;DHT22;11898;51.130;6.780;2022-08-05T06:56:37;21.20;99.90
23452;DHT22;11898;51.130;6.780;2022-08-05T06:59:06;21.20;99.90
23452;DHT22;11898;51.130;6.780;2022-08-05T07:01:40;20.80;99.90
23452;DHT22;11898;51.130;6.780;2022-08-05T07:04:11;21.10;99.90
23452;DHT22;11898;51.130;6.780;2022-08-05T07:06:40;21.10;99.90
23452;DHT22;11898;51.130;6.780;2022-08-05T07:09:09;21.00;99.90
23452;DHT22;11898;51.130;6.780;2022-08-05T07:11:39;21.10;99.90
23452;DHT22;11898;51.130;6.780;2022-08-05T07:14:10;20.90;99.90
23452;DHT22;11898;51.130;6.780;2022-08-05T07:16:58;20.90;99.90
23452;DHT22;11898;51.130;6.780;2022-08-05T07:19:32;20.80;99.90
23452;DHT22;11898;51.130;6.780;2022-08-05T07:22:03;20.80;99.90
23452;DHT22;11898;51.130;6.780;2022-08-05T07:24:33;20.70;99.90
23452;DHT22;11898;51.130;6.780;2022-08-05T07:27:03;20.60;99.90
23452;DHT22;11898;51.130;6.780;2022-08-05T07:29:34;20.60;99.90
23452;DHT22;11898;51.130;6.780;2022-08-05T07:32:04;20.50;99.90
23452;DHT22;11898;51.130;6.780;2022-08-05T07:34:33;20.60;99.90
23452;DHT22;11898;51.130;6.780;2022-08-05T07:37:04;20.60;99.90
23452;DHT22;11898;51.130;6.780;2022-08-05T07:39:34;20.60;99.90
23452;DHT22;11898;51.130;6.780;2022-08-05T07:42:04;20.60;99.90
23452;DHT22;11898;51.130;6.780;2022-08-05T07:44:35;20.60;99.90
23452;DHT22;11898;51.130;6.780;2022-08-05T07:47:05;20.50;99.90
23452;DHT22;11898;51.130;6.780;2022-08-05T07:49:35;20.50;99.90
23452;DHT22;11898;51.130;6.780;2022-08-05T07:52:06;20.50;99.90
23452;DHT22;11898;51.130;6.780;2022-08-05T07:54:36;20.50;99.90
23452;DHT22;11898;51.130;6.780;2022-08-05T07:57:06;20.50;99.90
23452;DHT22;11898;51.130;6.780;2022-08-05T07:59:36;20.50;99.90
23452;DHT22;11898;51.130;6.780;2022-08-05T08:02:08;20.50;99.90
23452;DHT22;11898;51.130;6.780;2022-08-05T08:04:39;20.50;99.90
23452;DHT22;11898;51.130;6.780;2022-08-05T08:07:12;20.50;99.90
23452;DHT22;11898;51.130;6.780;2022-08-05T08:09:43;20.40;99.90
23452;DHT22;11898;51.130;6.780;2022-08-05T08:12:12;20.50;99.90
23452;DHT22;11898;51.130;6.780;2022-08-05T08:14:43;20.50;99.90
23452;DHT22;11898;51.130;6.780;2022-08-05T08:17:14;20.40;99.90
23452;DHT22;11898;51.130;6.780;2022-08-05T08:19:44;20.30;99.90
23452;DHT22;11898;51.130;6.780;2022-08-05T08:22:14;20.30;99.90
23452;DHT22;11898;51.130;6.780;2022-08-05T08:24:43;20.20;99.90
23452;DHT22;11898;51.130;6.780;2022-08-05T08:27:13;20.20;99.90
23452;DHT22;11898;51.130;6.780;2022-08-05T08:29:43;20.20;99.90
23452;DHT22;11898;51.130;6.780;2022-08-05T08:32:14;20.10;99.90
23452;DHT22;11898;51.130;6.780;2022-08-05T08:34:44;20.20;99.90
23452;DHT22;11898;51.130;6.780;2022-08-05T08:37:13;20.10;99.90
23452;DHT22;11898;51.130;6.780;2022-08-05T08:39:44;20.10;99.90
23452;DHT22;11898;51.130;6.780;2022-08-05T08:42:16;20.10;99.90
23452;DHT22;11898;51.130;6.780;2022-08-05T08:44:47;20.10;99.90
23452;DHT22;11898;51.130;6.780;2022-08-05T08:47:21;20.20;99.90
23452;DHT22;11898;51.130;6.780;2022-08-05T08:49:53;20.10;99.90
23452;DHT22;11898;51.130;6.780;2022-08-05T08:52:31;20.20;99.90
23452;DHT22;11898;51.130;6.780;2022-08-05T08:55:02;20.30;99.90
23452;DHT22;11898;51.130;6.780;2022-08-05T08:57:33;20.30;99.90
23452;DHT22;11898;51.130;6.780;2022-08-05T09:00:04;20.30;99.90
23452;DHT22;11898;51.130;6.780;2022-08-05T09:02:36;20.30;99.90
23452;DHT22;11898;51.130;6.780;2022-08-05T09:05:06;20.40;99.90
23452;DHT22;11898;51.130;6.780;2022-08-05T09:07:38;20.40;99.90
23452;DHT22;11898;51.130;6.780;2022-08-05T09:10:09;20.40;99.90
23452;DHT22;11898;51.130;6.780;2022-08-05T09:12:38;20.50;99.90
23452;DHT22;11898;51.130;6.780;2022-08-05T09:15:08;20.50;99.90
23452;DHT22;11898;51.130;6.780;2022-08-05T09:17:39;20.50;99.90
23452;DHT22;11898;51.130;6.780;2022-08-05T09:20:11;20.50;99.90
23452;DHT22;11898;51.130;6.780;2022-08-05T09:23:07;20.60;99.90
23452;DHT22;11898;51.130;6.780;2022-08-05T09:25:42;20.60;99.90
